sensor_id;sensor_type;location;lat;lon;timestamp;P1;durP1;ratioP1;P2;durP2;ratioP2
7213;SDS011;3648;50.614;13.830;2022-10-16T00:00:58;22.60;;;17.47;;
7213;SDS011;3648;50.614;13.830;2022-10-16T00:03:31;22.27;;;18.60;;
7213;SDS011;3648;50.614;13.830;2022-10-16T00:05:58;19.03;;;16.00;;
7213;SDS011;3648;50.614;13.830;2022-10-16T00:08:26;18.13;;;13.93;;
7213;SDS011;3648;50.614;13.830;2022-10-16T00:10:58;15.90;;;12.27;;
7213;SDS011;3648;50.614;13.830;2022-10-16T00:13:25;16.03;;;12.63;;
7213;SDS011;3648;50.614;13.830;2022-10-16T00:15:54;14.90;;;11.60;;
7213;SDS011;3648;50.614;13.830;2022-10-16T00:18:23;12.73;;;10.73;;
7213;SDS011;3648;50.614;13.830;2022-10-16T00:20:51;17.80;;;14.27;;
7213;SDS011;3648;50.614;13.830;2022-10-16T00:23:18;18.57;;;13.60;;
7213;SDS011;3648;50.614;13.830;2022-10-16T00:25:54;17.93;;;14.60;;
7213;SDS011;3648;50.614;13.830;2022-10-16T00:28:21;21.87;;;14.17;;
7213;SDS011;3648;50.614;13.830;2022-10-16T00:30:49;19.40;;;13.97;;
7213;SDS011;3648;50.614;13.830;2022-10-16T00:33:15;18.47;;;13.50;;
7213;SDS011;3648;50.614;13.830;2022-10-16T00:35:44;24.17;;;18.30;;
7213;SDS011;3648;50.614;13.830;2022-10-16T00:38:11;19.80;;;15.43;;
7213;SDS011;3648;50.614;13.830;2022-10-16T00:40:38;19.50;;;15.80;;
7213;SDS011;3648;50.614;13.830;2022-10-16T00:43:09;21.00;;;16.93;;
7213;SDS011;3648;50.614;13.830;2022-10-16T00:45:39;19.93;;;16.70;;
7213;SDS011;3648;50.614;13.830;2022-10-16T00:48:07;20.77;;;15.73;;
7213;SDS011;3648;50.614;13.830;2022-10-16T00:50:39;20.63;;;15.87;;
7213;SDS011;3648;50.614;13.830;2022-10-16T00:53:10;19.93;;;16.10;;
7213;SDS011;3648;50.614;13.830;2022-10-16T00:55:38;19.67;;;14.63;;
7213;SDS011;3648;50.614;13.830;2022-10-16T00:58:06;18.30;;;15.73;;
7213;SDS011;3648;50.614;13.830;2022-10-16T01:00:33;18.30;;;14.77;;
7213;SDS011;3648;50.614;13.830;2022-10-16T01:03:01;17.33;;;13.53;;
7213;SDS011;3648;50.614;13.830;2022-10-16T01:05:30;20.93;;;15.17;;
7213;SDS011;3648;50.614;13.830;2022-10-16T01:08:03;22.33;;;16.13;;
7213;SDS011;3648;50.614;13.830;2022-10-16T01:10:38;23.40;;;17.63;;
7213;SDS011;3648;50.614;13.830;2022-10-16T01:13:09;26.87;;;16.93;;
7213;SDS011;3648;50.614;13.830;2022-10-16T01:15:41;23.60;;;17.80;;
7213;SDS011;3648;50.614;13.830;2022-10-16T01:18:14;23.27;;;17.70;;
7213;SDS011;3648;50.614;13.830;2022-10-16T01:20:45;22.30;;;17.83;;
7213;SDS011;3648;50.614;13.830;2022-10-16T01:23:27;22.70;;;17.90;;
7213;SDS011;3648;50.614;13.830;2022-10-16T01:26:08;21.17;;;17.27;;
7213;SDS011;3648;50.614;13.830;2022-10-16T01:28:52;20.03;;;15.87;;
7213;SDS011;3648;50.614;13.830;2022-10-16T01:31:24;21.23;;;16.73;;
7213;SDS011;3648;50.614;13.830;2022-10-16T01:33:56;18.83;;;15.17;;
7213;SDS011;3648;50.614;13.830;2022-10-16T01:36:31;19.30;;;16.13;;
7213;SDS011;3648;50.614;13.830;2022-10-16T01:39:04;21.43;;;16.87;;
7213;SDS011;3648;50.614;13.830;2022-10-16T01:41:36;22.23;;;15.43;;
7213;SDS011;3648;50.614;13.830;2022-10-16T01:44:08;20.03;;;15.10;;
7213;SDS011;3648;50.614;13.830;2022-10-16T01:46:41;18.67;;;15.13;;
7213;SDS011;3648;50.614;13.830;2022-10-16T01:49:11;17.17;;;14.13;;
7213;SDS011;3648;50.614;13.830;2022-10-16T01:51:39;21.53;;;16.07;;
7213;SDS011;3648;50.614;13.830;2022-10-16T01:54:09;19.17;;;14.90;;
7213;SDS011;3648;50.614;13.830;2022-10-16T01:56:37;19.17;;;14.70;;
7213;SDS011;3648;50.614;13.830;2022-10-16T01:59:09;20.03;;;15.53;;
7213;SDS011;3648;50.614;13.830;2022-10-16T02:01:39;21.10;;;16.77;;
7213;SDS011;3648;50.614;13.830;2022-10-16T02:04:09;21.17;;;15.57;;
7213;SDS011;3648;50.614;13.830;2022-10-16T02:06:41;20.37;;;15.33;;
7213;SDS011;3648;50.614;13.830;2022-10-16T02:09:08;19.43;;;16.13;;
7213;SDS011;3648;50.614;13.830;2022-10-16T02:11:35;21.17;;;17.30;;
7213;SDS011;3648;50.614;13.830;2022-10-16T02:14:03;21.83;;;16.40;;
7213;SDS011;3648;50.614;13.830;2022-10-16T02:16:37;20.70;;;16.60;;
7213;SDS011;3648;50.614;13.830;2022-10-16T02:19:05;20.67;;;16.47;;
7213;SDS011;3648;50.614;13.830;2022-10-16T02:21:33;17.30;;;14.87;;
7213;SDS011;3648;50.614;13.830;2022-10-16T02:24:08;17.70;;;14.67;;
7213;SDS011;3648;50.614;13.830;2022-10-16T02:26:42;17.60;;;14.90;;
7213;SDS011;3648;50.614;13.830;2022-10-16T02:29:15;19.13;;;14.27;;
7213;SDS011;3648;50.614;13.830;2022-10-16T02:31:48;16.00;;;13.07;;
7213;SDS011;3648;50.614;13.830;2022-10-16T02:34:17;15.87;;;13.97;;
7213;SDS011;3648;50.614;13.830;2022-10-16T02:36:47;17.77;;;13.83;;
7213;SDS011;3648;50.614;13.830;2022-10-16T02:39:16;19.23;;;14.63;;
7213;SDS011;3648;50.614;13.830;2022-10-16T02:41:44;19.73;;;13.73;;
7213;SDS011;3648;50.614;13.830;2022-10-16T02:44:11;18.87;;;13.77;;
7213;SDS011;3648;50.614;13.830;2022-10-16T02:46:38;20.70;;;15.03;;
7213;SDS011;3648;50.614;13.830;2022-10-16T02:49:07;17.57;;;14.53;;
7213;SDS011;3648;50.614;13.830;2022-10-16T02:51:34;19.43;;;14.57;;
7213;SDS011;3648;50.614;13.830;2022-10-16T02:54:01;18.20;;;15.60;;
7213;SDS011;3648;50.614;13.830;2022-10-16T02:56:28;19.10;;;15.83;;
7213;SDS011;3648;50.614;13.830;2022-10-16T02:58:56;16.67;;;14.90;;
7213;SDS011;3648;50.614;13.830;2022-10-16T03:01:23;17.83;;;14.57;;
7213;SDS011;3648;50.614;13.830;2022-10-16T03:03:50;16.57;;;13.77;;
7213;SDS011;3648;50.614;13.830;2022-10-16T03:06:18;16.40;;;14.57;;
7213;SDS011;3648;50.614;13.830;2022-10-16T03:08:45;16.63;;;14.80;;
7213;SDS011;3648;50.614;13.830;2022-10-16T03:11:12;19.37;;;15.07;;
7213;SDS011;3648;50.614;13.830;2022-10-16T03:13:39;20.63;;;15.60;;
7213;SDS011;3648;50.614;13.830;2022-10-16T03:16:06;18.37;;;15.07;;
7213;SDS011;3648;50.614;13.830;2022-10-16T03:18:33;19.27;;;15.57;;
7213;SDS011;3648;50.614;13.830;2022-10-16T03:21:00;20.33;;;14.97;;
7213;SDS011;3648;50.614;13.830;2022-10-16T03:23:28;18.50;;;14.90;;
7213;SDS011;3648;50.614;13.830;2022-10-16T03:25:55;17.63;;;13.90;;
7213;SDS011;3648;50.614;13.830;2022-10-16T03:28:22;17.07;;;14.00;;
7213;SDS011;3648;50.614;13.830;2022-10-16T03:30:49;15.10;;;12.53;;
7213;SDS011;3648;50.614;13.830;2022-10-16T03:33:16;15.63;;;13.40;;
7213;SDS011;3648;50.614;13.830;2022-10-16T03:35:43;16.27;;;13.53;;
7213;SDS011;3648;50.614;13.830;2022-10-16T03:38:17;17.20;;;13.17;;
7213;SDS011;3648;50.614;13.830;2022-10-16T03:40:45;19.70;;;13.73;;
7213;SDS011;3648;50.614;13.830;2022-10-16T03:43:12;17.27;;;13.23;;
7213;SDS011;3648;50.614;13.830;2022-10-16T03:45:39;17.80;;;14.23;;
7213;SDS011;3648;50.614;13.830;2022-10-16T03:48:06;16.80;;;13.70;;
7213;SDS011;3648;50.614;13.830;2022-10-16T03:50:33;17.67;;;13.60;;
7213;SDS011;3648;50.614;13.830;2022-10-16T03:53:00;15.63;;;12.70;;
7213;SDS011;3648;50.614;13.830;2022-10-16T03:55:27;19.97;;;13.47;;
7213;SDS011;3648;50.614;13.830;2022-10-16T03:57:55;16.83;;;13.00;;
7213;SDS011;3648;50.614;13.830;2022-10-16T04:00:22;16.50;;;13.77;;
7213;SDS011;3648;50.614;13.830;2022-10-16T04:02:49;15.73;;;13.37;;
7213;SDS011;3648;50.614;13.830;2022-10-16T04:05:16;16.27;;;12.33;;
7213;SDS011;3648;50.614;13.830;2022-10-16T04:07:43;16.63;;;12.93;;
7213;SDS011;3648;50.614;13.830;2022-10-16T04:10:09;17.17;;;12.93;;
7213;SDS011;3648;50.614;13.830;2022-10-16T04:12:36;14.13;;;12.17;;
7213;SDS011;3648;50.614;13.830;2022-10-16T04:15:05;14.47;;;12.20;;
7213;SDS011;3648;50.614;13.830;2022-10-16T04:17:32;16.97;;;11.57;;
7213;SDS011;3648;50.614;13.830;2022-10-16T04:19:59;14.93;;;11.87;;
7213;SDS011;3648;50.614;13.830;2022-10-16T04:22:26;14.73;;;11.67;;
7213;SDS011;3648;50.614;13.830;2022-10-16T04:24:53;14.13;;;10.30;;
7213;SDS011;3648;50.614;13.830;2022-10-16T04:27:20;12.17;;;10.00;;
7213;SDS011;3648;50.614;13.830;2022-10-16T04:29:47;12.17;;;10.03;;
7213;SDS011;3648;50.614;13.830;2022-10-16T04:32:15;10.50;;;9.17;;
7213;SDS011;3648;50.614;13.830;2022-10-16T04:34:42;12.00;;;10.50;;
7213;SDS011;3648;50.614;13.830;2022-10-16T04:37:09;15.77;;;13.07;;
7213;SDS011;3648;50.614;13.830;2022-10-16T04:39:36;14.30;;;12.30;;
7213;SDS011;3648;50.614;13.830;2022-10-16T04:42:03;15.30;;;12.33;;
7213;SDS011;3648;50.614;13.830;2022-10-16T04:44:30;14.50;;;12.03;;
7213;SDS011;3648;50.614;13.830;2022-10-16T04:46:56;15.47;;;12.00;;
7213;SDS011;3648;50.614;13.830;2022-10-16T04:49:25;14.63;;;11.77;;
7213;SDS011;3648;50.614;13.830;2022-10-16T04:51:52;12.77;;;10.77;;
7213;SDS011;3648;50.614;13.830;2022-10-16T04:54:19;11.13;;;9.50;;
7213;SDS011;3648;50.614;13.830;2022-10-16T04:56:45;12.27;;;9.90;;
7213;SDS011;3648;50.614;13.830;2022-10-16T04:59:15;13.43;;;10.57;;
7213;SDS011;3648;50.614;13.830;2022-10-16T05:01:42;14.87;;;10.57;;
7213;SDS011;3648;50.614;13.830;2022-10-16T05:04:09;12.83;;;10.77;;
7213;SDS011;3648;50.614;13.830;2022-10-16T05:06:38;13.10;;;10.90;;
7213;SDS011;3648;50.614;13.830;2022-10-16T05:09:05;11.47;;;10.27;;
7213;SDS011;3648;50.614;13.830;2022-10-16T05:11:32;12.90;;;10.10;;
7213;SDS011;3648;50.614;13.830;2022-10-16T05:13:59;12.03;;;10.00;;
7213;SDS011;3648;50.614;13.830;2022-10-16T05:16:27;13.00;;;10.53;;
7213;SDS011;3648;50.614;13.830;2022-10-16T05:18:54;12.60;;;10.43;;
7213;SDS011;3648;50.614;13.830;2022-10-16T05:21:21;14.63;;;11.83;;
7213;SDS011;3648;50.614;13.830;2022-10-16T05:23:49;13.17;;;11.43;;
7213;SDS011;3648;50.614;13.830;2022-10-16T05:26:16;13.97;;;11.23;;
7213;SDS011;3648;50.614;13.830;2022-10-16T05:28:43;14.03;;;11.17;;
7213;SDS011;3648;50.614;13.830;2022-10-16T05:31:10;14.57;;;11.97;;
7213;SDS011;3648;50.614;13.830;2022-10-16T05:33:37;14.17;;;12.23;;
7213;SDS011;3648;50.614;13.830;2022-10-16T05:36:05;13.23;;;11.53;;
7213;SDS011;3648;50.614;13.830;2022-10-16T05:38:33;13.77;;;12.07;;
7213;SDS011;3648;50.614;13.830;2022-10-16T05:41:02;14.37;;;12.27;;
7213;SDS011;3648;50.614;13.830;2022-10-16T05:43:30;14.93;;;12.27;;
7213;SDS011;3648;50.614;13.830;2022-10-16T05:45:57;14.30;;;10.97;;
7213;SDS011;3648;50.614;13.830;2022-10-16T05:48:29;10.60;;;9.50;;
7213;SDS011;3648;50.614;13.830;2022-10-16T05:50:56;13.03;;;10.80;;
7213;SDS011;3648;50.614;13.830;2022-10-16T05:53:24;11.67;;;10.23;;
7213;SDS011;3648;50.614;13.830;2022-10-16T05:55:51;12.23;;;10.03;;
7213;SDS011;3648;50.614;13.830;2022-10-16T05:58:20;11.90;;;10.00;;
7213;SDS011;3648;50.614;13.830;2022-10-16T06:00:54;11.17;;;9.97;;
7213;SDS011;3648;50.614;13.830;2022-10-16T06:03:21;10.43;;;9.33;;
7213;SDS011;3648;50.614;13.830;2022-10-16T06:05:48;9.97;;;8.97;;
7213;SDS011;3648;50.614;13.830;2022-10-16T06:08:16;11.97;;;9.57;;
7213;SDS011;3648;50.614;13.830;2022-10-16T06:10:43;11.70;;;9.43;;
7213;SDS011;3648;50.614;13.830;2022-10-16T06:13:11;16.20;;;11.50;;
7213;SDS011;3648;50.614;13.830;2022-10-16T06:15:39;15.60;;;11.10;;
7213;SDS011;3648;50.614;13.830;2022-10-16T06:18:08;16.30;;;10.80;;
7213;SDS011;3648;50.614;13.830;2022-10-16T06:20:35;18.00;;;12.43;;
7213;SDS011;3648;50.614;13.830;2022-10-16T06:23:02;17.73;;;12.87;;
7213;SDS011;3648;50.614;13.830;2022-10-16T06:25:30;25.83;;;18.30;;
7213;SDS011;3648;50.614;13.830;2022-10-16T06:27:57;26.50;;;18.33;;
7213;SDS011;3648;50.614;13.830;2022-10-16T06:30:24;23.27;;;17.10;;
7213;SDS011;3648;50.614;13.830;2022-10-16T06:32:53;24.23;;;17.17;;
7213;SDS011;3648;50.614;13.830;2022-10-16T06:35:20;20.30;;;16.07;;
7213;SDS011;3648;50.614;13.830;2022-10-16T06:37:47;18.83;;;14.80;;
7213;SDS011;3648;50.614;13.830;2022-10-16T06:40:14;16.27;;;12.30;;
7213;SDS011;3648;50.614;13.830;2022-10-16T06:42:42;13.93;;;11.70;;
7213;SDS011;3648;50.614;13.830;2022-10-16T06:45:09;13.80;;;11.03;;
7213;SDS011;3648;50.614;13.830;2022-10-16T06:47:36;13.90;;;11.43;;
7213;SDS011;3648;50.614;13.830;2022-10-16T06:50:05;12.17;;;10.07;;
7213;SDS011;3648;50.614;13.830;2022-10-16T06:52:33;12.73;;;10.17;;
7213;SDS011;3648;50.614;13.830;2022-10-16T06:55:00;12.80;;;9.67;;
7213;SDS011;3648;50.614;13.830;2022-10-16T06:57:28;9.57;;;8.67;;
7213;SDS011;3648;50.614;13.830;2022-10-16T06:59:55;11.07;;;9.67;;
7213;SDS011;3648;50.614;13.830;2022-10-16T07:02:22;10.93;;;9.53;;
7213;SDS011;3648;50.614;13.830;2022-10-16T07:04:49;11.37;;;9.90;;
7213;SDS011;3648;50.614;13.830;2022-10-16T07:07:18;12.23;;;10.90;;
7213;SDS011;3648;50.614;13.830;2022-10-16T07:09:45;12.73;;;11.07;;
7213;SDS011;3648;50.614;13.830;2022-10-16T07:12:12;15.50;;;13.23;;
7213;SDS011;3648;50.614;13.830;2022-10-16T07:14:39;14.23;;;12.73;;
7213;SDS011;3648;50.614;13.830;2022-10-16T07:17:07;15.07;;;13.20;;
7213;SDS011;3648;50.614;13.830;2022-10-16T07:19:35;16.37;;;13.60;;
7213;SDS011;3648;50.614;13.830;2022-10-16T07:22:02;15.23;;;13.63;;
7213;SDS011;3648;50.614;13.830;2022-10-16T07:24:31;16.07;;;14.20;;
7213;SDS011;3648;50.614;13.830;2022-10-16T07:26:58;15.70;;;13.63;;
7213;SDS011;3648;50.614;13.830;2022-10-16T07:29:26;15.03;;;13.17;;
7213;SDS011;3648;50.614;13.830;2022-10-16T07:31:53;38.63;;;25.67;;
7213;SDS011;3648;50.614;13.830;2022-10-16T07:34:20;33.23;;;21.53;;
7213;SDS011;3648;50.614;13.830;2022-10-16T07:36:48;34.23;;;23.83;;
7213;SDS011;3648;50.614;13.830;2022-10-16T07:39:15;40.33;;;27.03;;
7213;SDS011;3648;50.614;13.830;2022-10-16T07:41:44;39.43;;;27.60;;
7213;SDS011;3648;50.614;13.830;2022-10-16T07:44:11;29.23;;;21.93;;
7213;SDS011;3648;50.614;13.830;2022-10-16T07:46:38;20.87;;;15.37;;
7213;SDS011;3648;50.614;13.830;2022-10-16T07:49:06;16.83;;;13.97;;
7213;SDS011;3648;50.614;13.830;2022-10-16T07:51:33;14.83;;;12.03;;
7213;SDS011;3648;50.614;13.830;2022-10-16T07:54:00;22.17;;;18.90;;
7213;SDS011;3648;50.614;13.830;2022-10-16T07:56:27;15.40;;;12.97;;
7213;SDS011;3648;50.614;13.830;2022-10-16T07:58:59;16.77;;;13.70;;
7213;SDS011;3648;50.614;13.830;2022-10-16T08:01:26;16.20;;;12.93;;
7213;SDS011;3648;50.614;13.830;2022-10-16T08:03:53;17.37;;;14.97;;
7213;SDS011;3648;50.614;13.830;2022-10-16T08:06:21;13.73;;;11.63;;
7213;SDS011;3648;50.614;13.830;2022-10-16T08:08:49;9.83;;;8.80;;
7213;SDS011;3648;50.614;13.830;2022-10-16T08:11:18;14.57;;;10.33;;
7213;SDS011;3648;50.614;13.830;2022-10-16T08:13:45;14.00;;;11.87;;
7213;SDS011;3648;50.614;13.830;2022-10-16T08:16:13;13.40;;;11.30;;
7213;SDS011;3648;50.614;13.830;2022-10-16T08:18:40;11.63;;;8.33;;
7213;SDS011;3648;50.614;13.830;2022-10-16T08:21:11;6.87;;;6.17;;
7213;SDS011;3648;50.614;13.830;2022-10-16T08:23:39;6.27;;;5.67;;
7213;SDS011;3648;50.614;13.830;2022-10-16T08:26:07;5.67;;;4.80;;
7213;SDS011;3648;50.614;13.830;2022-10-16T08:28:35;4.70;;;4.10;;
7213;SDS011;3648;50.614;13.830;2022-10-16T08:31:06;5.03;;;3.77;;
7213;SDS011;3648;50.614;13.830;2022-10-16T08:33:36;17.00;;;15.23;;
7213;SDS011;3648;50.614;13.830;2022-10-16T08:36:04;18.43;;;16.63;;
7213;SDS011;3648;50.614;13.830;2022-10-16T08:38:32;9.70;;;8.67;;
7213;SDS011;3648;50.614;13.830;2022-10-16T08:41:02;9.87;;;8.40;;
7213;SDS011;3648;50.614;13.830;2022-10-16T08:43:54;6.87;;;5.57;;
7213;SDS011;3648;50.614;13.830;2022-10-16T08:46:38;7.37;;;5.43;;
7213;SDS011;3648;50.614;13.830;2022-10-16T08:49:11;5.17;;;4.67;;
7213;SDS011;3648;50.614;13.830;2022-10-16T08:51:39;4.63;;;4.17;;
7213;SDS011;3648;50.614;13.830;2022-10-16T08:54:11;4.33;;;3.93;;
7213;SDS011;3648;50.614;13.830;2022-10-16T08:56:49;13.53;;;11.57;;
7213;SDS011;3648;50.614;13.830;2022-10-16T08:59:16;12.40;;;11.13;;
7213;SDS011;3648;50.614;13.830;2022-10-16T09:01:45;13.43;;;11.90;;
7213;SDS011;3648;50.614;13.830;2022-10-16T09:07:24;11.47;;;10.27;;
7213;SDS011;3648;50.614;13.830;2022-10-16T09:10:06;8.20;;;7.37;;
7213;SDS011;3648;50.614;13.830;2022-10-16T09:12:46;7.27;;;5.57;;
7213;SDS011;3648;50.614;13.830;2022-10-16T09:15:22;6.40;;;4.70;;
7213;SDS011;3648;50.614;13.830;2022-10-16T09:17:56;5.60;;;4.87;;
7213;SDS011;3648;50.614;13.830;2022-10-16T09:20:30;5.87;;;4.37;;
7213;SDS011;3648;50.614;13.830;2022-10-16T09:23:14;7.43;;;5.90;;
7213;SDS011;3648;50.614;13.830;2022-10-16T09:25:43;8.30;;;5.43;;
7213;SDS011;3648;50.614;13.830;2022-10-16T09:28:12;6.07;;;4.87;;
7213;SDS011;3648;50.614;13.830;2022-10-16T09:30:40;5.37;;;4.70;;
7213;SDS011;3648;50.614;13.830;2022-10-16T09:33:07;22.80;;;15.73;;
7213;SDS011;3648;50.614;13.830;2022-10-16T09:35:36;11.73;;;7.70;;
7213;SDS011;3648;50.614;13.830;2022-10-16T09:38:06;24.30;;;15.73;;
7213;SDS011;3648;50.614;13.830;2022-10-16T09:40:36;21.23;;;13.53;;
7213;SDS011;3648;50.614;13.830;2022-10-16T09:43:14;11.77;;;8.47;;
7213;SDS011;3648;50.614;13.830;2022-10-16T09:45:53;30.03;;;21.50;;
7213;SDS011;3648;50.614;13.830;2022-10-16T09:48:21;13.07;;;10.40;;
7213;SDS011;3648;50.614;13.830;2022-10-16T09:50:55;10.30;;;8.50;;
7213;SDS011;3648;50.614;13.830;2022-10-16T09:53:22;12.10;;;8.43;;
7213;SDS011;3648;50.614;13.830;2022-10-16T09:55:51;10.47;;;7.90;;
7213;SDS011;3648;50.614;13.830;2022-10-16T09:58:21;7.70;;;5.93;;
7213;SDS011;3648;50.614;13.830;2022-10-16T10:00:48;9.10;;;6.93;;
7213;SDS011;3648;50.614;13.830;2022-10-16T10:03:30;7.90;;;6.07;;
7213;SDS011;3648;50.614;13.830;2022-10-16T10:06:01;8.17;;;6.30;;
7213;SDS011;3648;50.614;13.830;2022-10-16T10:08:33;9.40;;;6.93;;
7213;SDS011;3648;50.614;13.830;2022-10-16T10:11:01;8.23;;;6.63;;
7213;SDS011;3648;50.614;13.830;2022-10-16T10:13:29;10.50;;;7.03;;
7213;SDS011;3648;50.614;13.830;2022-10-16T10:15:57;11.13;;;8.67;;
7213;SDS011;3648;50.614;13.830;2022-10-16T10:18:24;9.43;;;7.43;;
7213;SDS011;3648;50.614;13.830;2022-10-16T10:20:57;11.07;;;9.93;;
7213;SDS011;3648;50.614;13.830;2022-10-16T10:23:25;8.43;;;6.00;;
7213;SDS011;3648;50.614;13.830;2022-10-16T10:25:56;7.40;;;5.03;;
7213;SDS011;3648;50.614;13.830;2022-10-16T10:28:46;7.93;;;5.40;;
7213;SDS011;3648;50.614;13.830;2022-10-16T10:31:24;8.30;;;5.50;;
7213;SDS011;3648;50.614;13.830;2022-10-16T10:33:55;5.43;;;4.70;;
7213;SDS011;3648;50.614;13.830;2022-10-16T10:36:28;4.60;;;3.63;;
7213;SDS011;3648;50.614;13.830;2022-10-16T10:38:59;5.10;;;4.60;;
7213;SDS011;3648;50.614;13.830;2022-10-16T10:41:53;5.20;;;4.70;;
7213;SDS011;3648;50.614;13.830;2022-10-16T10:44:41;4.27;;;3.87;;
7213;SDS011;3648;50.614;13.830;2022-10-16T10:47:34;6.23;;;5.33;;
7213;SDS011;3648;50.614;13.830;2022-10-16T10:50:14;6.43;;;4.87;;
7213;SDS011;3648;50.614;13.830;2022-10-16T10:52:53;5.53;;;5.03;;
7213;SDS011;3648;50.614;13.830;2022-10-16T10:55:31;7.53;;;4.17;;
7213;SDS011;3648;50.614;13.830;2022-10-16T10:58:11;4.30;;;3.90;;
7213;SDS011;3648;50.614;13.830;2022-10-16T11:01:16;7.40;;;4.83;;
7213;SDS011;3648;50.614;13.830;2022-10-16T11:03:51;7.03;;;4.87;;
7213;SDS011;3648;50.614;13.830;2022-10-16T11:06:28;8.17;;;5.70;;
7213;SDS011;3648;50.614;13.830;2022-10-16T11:09:00;8.80;;;6.43;;
7213;SDS011;3648;50.614;13.830;2022-10-16T11:11:34;6.70;;;4.40;;
7213;SDS011;3648;50.614;13.830;2022-10-16T11:14:10;6.20;;;4.80;;
7213;SDS011;3648;50.614;13.830;2022-10-16T11:16:45;5.77;;;4.33;;
7213;SDS011;3648;50.614;13.830;2022-10-16T11:19:21;7.07;;;4.40;;
7213;SDS011;3648;50.614;13.830;2022-10-16T11:21:56;7.53;;;4.83;;
7213;SDS011;3648;50.614;13.830;2022-10-16T11:24:33;5.07;;;3.97;;
7213;SDS011;3648;50.614;13.830;2022-10-16T11:27:08;6.20;;;4.37;;
7213;SDS011;3648;50.614;13.830;2022-10-16T11:29:41;5.93;;;4.33;;
7213;SDS011;3648;50.614;13.830;2022-10-16T11:32:19;10.47;;;6.47;;
7213;SDS011;3648;50.614;13.830;2022-10-16T11:34:50;10.10;;;4.23;;
7213;SDS011;3648;50.614;13.830;2022-10-16T11:37:23;6.30;;;3.73;;
7213;SDS011;3648;50.614;13.830;2022-10-16T11:39:57;5.83;;;5.20;;
7213;SDS011;3648;50.614;13.830;2022-10-16T11:42:31;7.80;;;5.03;;
7213;SDS011;3648;50.614;13.830;2022-10-16T11:45:04;7.77;;;5.90;;
7213;SDS011;3648;50.614;13.830;2022-10-16T11:47:48;4.10;;;3.40;;
7213;SDS011;3648;50.614;13.830;2022-10-16T11:50:22;2.90;;;2.43;;
7213;SDS011;3648;50.614;13.830;2022-10-16T11:52:55;6.33;;;3.80;;
7213;SDS011;3648;50.614;13.830;2022-10-16T11:55:29;5.63;;;4.23;;
7213;SDS011;3648;50.614;13.830;2022-10-16T11:58:01;48.57;;;34.63;;
7213;SDS011;3648;50.614;13.830;2022-10-16T12:00:34;18.47;;;12.67;;
7213;SDS011;3648;50.614;13.830;2022-10-16T12:03:11;12.23;;;9.03;;
7213;SDS011;3648;50.614;13.830;2022-10-16T12:05:50;11.40;;;9.30;;
7213;SDS011;3648;50.614;13.830;2022-10-16T12:08:24;9.53;;;7.33;;
7213;SDS011;3648;50.614;13.830;2022-10-16T12:10:52;5.50;;;4.57;;
7213;SDS011;3648;50.614;13.830;2022-10-16T12:13:33;8.97;;;8.17;;
7213;SDS011;3648;50.614;13.830;2022-10-16T12:16:20;4.37;;;3.97;;
7213;SDS011;3648;50.614;13.830;2022-10-16T12:19:02;8.70;;;6.30;;
7213;SDS011;3648;50.614;13.830;2022-10-16T12:21:36;7.57;;;5.10;;
7213;SDS011;3648;50.614;13.830;2022-10-16T12:24:04;6.00;;;3.53;;
7213;SDS011;3648;50.614;13.830;2022-10-16T12:26:32;6.60;;;5.17;;
7213;SDS011;3648;50.614;13.830;2022-10-16T12:29:12;13.57;;;7.60;;
7213;SDS011;3648;50.614;13.830;2022-10-16T12:31:43;8.17;;;5.77;;
7213;SDS011;3648;50.614;13.830;2022-10-16T12:34:19;21.83;;;13.00;;
7213;SDS011;3648;50.614;13.830;2022-10-16T12:36:49;22.00;;;11.50;;
7213;SDS011;3648;50.614;13.830;2022-10-16T12:39:20;10.93;;;7.33;;
7213;SDS011;3648;50.614;13.830;2022-10-16T12:41:59;8.27;;;6.63;;
7213;SDS011;3648;50.614;13.830;2022-10-16T12:44:31;6.73;;;5.57;;
7213;SDS011;3648;50.614;13.830;2022-10-16T12:47:00;7.87;;;5.27;;
7213;SDS011;3648;50.614;13.830;2022-10-16T12:49:35;6.17;;;4.77;;
7213;SDS011;3648;50.614;13.830;2022-10-16T12:52:04;4.17;;;3.30;;
7213;SDS011;3648;50.614;13.830;2022-10-16T12:54:46;3.80;;;2.47;;
7213;SDS011;3648;50.614;13.830;2022-10-16T12:57:19;1.70;;;1.50;;
7213;SDS011;3648;50.614;13.830;2022-10-16T13:00:00;1.60;;;1.40;;
7213;SDS011;3648;50.614;13.830;2022-10-16T13:05:26;4.90;;;3.40;;
7213;SDS011;3648;50.614;13.830;2022-10-16T13:08:10;5.67;;;3.77;;
7213;SDS011;3648;50.614;13.830;2022-10-16T13:10:51;8.97;;;5.70;;
7213;SDS011;3648;50.614;13.830;2022-10-16T13:13:43;8.23;;;4.20;;
7213;SDS011;3648;50.614;13.830;2022-10-16T13:16:29;4.23;;;3.60;;
7213;SDS011;3648;50.614;13.830;2022-10-16T13:19:08;10.00;;;6.57;;
7213;SDS011;3648;50.614;13.830;2022-10-16T13:21:47;11.67;;;7.73;;
7213;SDS011;3648;50.614;13.830;2022-10-16T13:24:25;18.80;;;11.20;;
7213;SDS011;3648;50.614;13.830;2022-10-16T13:27:17;14.27;;;10.10;;
7213;SDS011;3648;50.614;13.830;2022-10-16T13:29:59;8.90;;;5.97;;
7213;SDS011;3648;50.614;13.830;2022-10-16T13:32:28;7.07;;;3.97;;
7213;SDS011;3648;50.614;13.830;2022-10-16T13:34:55;5.30;;;3.53;;
7213;SDS011;3648;50.614;13.830;2022-10-16T13:37:24;3.33;;;3.00;;
7213;SDS011;3648;50.614;13.830;2022-10-16T13:40:01;5.27;;;4.77;;
7213;SDS011;3648;50.614;13.830;2022-10-16T13:42:33;4.67;;;3.47;;
7213;SDS011;3648;50.614;13.830;2022-10-16T13:45:00;2.90;;;2.37;;
7213;SDS011;3648;50.614;13.830;2022-10-16T13:47:28;2.23;;;1.97;;
7213;SDS011;3648;50.614;13.830;2022-10-16T13:49:59;2.53;;;1.63;;
7213;SDS011;3648;50.614;13.830;2022-10-16T13:52:28;2.10;;;1.60;;
7213;SDS011;3648;50.614;13.830;2022-10-16T13:54:56;3.90;;;2.80;;
7213;SDS011;3648;50.614;13.830;2022-10-16T13:57:23;3.43;;;2.73;;
7213;SDS011;3648;50.614;13.830;2022-10-16T13:59:51;2.53;;;2.13;;
7213;SDS011;3648;50.614;13.830;2022-10-16T14:02:20;4.70;;;1.87;;
7213;SDS011;3648;50.614;13.830;2022-10-16T14:04:52;3.50;;;2.30;;
7213;SDS011;3648;50.614;13.830;2022-10-16T14:07:23;2.83;;;1.90;;
7213;SDS011;3648;50.614;13.830;2022-10-16T14:09:53;3.47;;;1.93;;
7213;SDS011;3648;50.614;13.830;2022-10-16T14:12:21;1.50;;;1.40;;
7213;SDS011;3648;50.614;13.830;2022-10-16T14:14:50;4.67;;;2.60;;
7213;SDS011;3648;50.614;13.830;2022-10-16T14:17:20;5.63;;;4.13;;
7213;SDS011;3648;50.614;13.830;2022-10-16T14:19:51;5.77;;;2.37;;
7213;SDS011;3648;50.614;13.830;2022-10-16T14:22:28;2.87;;;2.37;;
7213;SDS011;3648;50.614;13.830;2022-10-16T14:24:59;9.43;;;5.63;;
7213;SDS011;3648;50.614;13.830;2022-10-16T14:27:29;9.20;;;5.07;;
7213;SDS011;3648;50.614;13.830;2022-10-16T14:30:11;6.63;;;4.07;;
7213;SDS011;3648;50.614;13.830;2022-10-16T14:32:41;7.13;;;4.10;;
7213;SDS011;3648;50.614;13.830;2022-10-16T14:35:22;4.00;;;2.60;;
7213;SDS011;3648;50.614;13.830;2022-10-16T14:37:55;2.57;;;1.93;;
7213;SDS011;3648;50.614;13.830;2022-10-16T14:40:26;2.40;;;2.07;;
7213;SDS011;3648;50.614;13.830;2022-10-16T14:42:55;1.73;;;1.43;;
7213;SDS011;3648;50.614;13.830;2022-10-16T14:45:23;3.43;;;2.20;;
7213;SDS011;3648;50.614;13.830;2022-10-16T14:47:52;1.47;;;1.37;;
7213;SDS011;3648;50.614;13.830;2022-10-16T14:50:22;1.63;;;1.30;;
7213;SDS011;3648;50.614;13.830;2022-10-16T14:52:49;1.77;;;1.40;;
7213;SDS011;3648;50.614;13.830;2022-10-16T14:55:16;1.50;;;1.40;;
7213;SDS011;3648;50.614;13.830;2022-10-16T14:57:45;2.17;;;1.37;;
7213;SDS011;3648;50.614;13.830;2022-10-16T15:00:15;1.40;;;1.00;;
7213;SDS011;3648;50.614;13.830;2022-10-16T15:02:45;0.97;;;0.90;;
7213;SDS011;3648;50.614;13.830;2022-10-16T15:05:15;16.77;;;11.93;;
7213;SDS011;3648;50.614;13.830;2022-10-16T15:07:44;17.57;;;14.23;;
7213;SDS011;3648;50.614;13.830;2022-10-16T15:10:11;15.20;;;11.40;;
7213;SDS011;3648;50.614;13.830;2022-10-16T15:12:39;11.33;;;8.73;;